sensor_id;sensor_type;location;lat;lon;timestamp;P1;durP1;ratioP1;P2;durP2;ratioP2
17169;SDS011;8700;48.222;16.342;2024-03-29T00:01:30;2.30;;;2.20;;
17169;SDS011;8700;48.222;16.342;2024-03-29T00:04:50;2.20;;;2.10;;
17169;SDS011;8700;48.222;16.342;2024-03-29T00:08:11;1.85;;;1.75;;
17169;SDS011;8700;48.222;16.342;2024-03-29T00:11:32;1.90;;;1.90;;
17169;SDS011;8700;48.222;16.342;2024-03-29T00:14:52;2.47;;;2.37;;
17169;SDS011;8700;48.222;16.342;2024-03-29T00:18:12;2.33;;;2.23;;
17169;SDS011;8700;48.222;16.342;2024-03-29T00:21:33;2.43;;;2.33;;
17169;SDS011;8700;48.222;16.342;2024-03-29T00:24:53;2.70;;;2.58;;
17169;SDS011;8700;48.222;16.342;2024-03-29T00:28:14;2.35;;;2.25;;
17169;SDS011;8700;48.222;16.342;2024-03-29T00:31:34;2.57;;;2.47;;
17169;SDS011;8700;48.222;16.342;2024-03-29T00:34:55;2.37;;;2.27;;
17169;SDS011;8700;48.222;16.342;2024-03-29T00:38:15;2.30;;;2.20;;
17169;SDS011;8700;48.222;16.342;2024-03-29T00:41:35;2.40;;;2.20;;
17169;SDS011;8700;48.222;16.342;2024-03-29T00:44:56;2.50;;;2.40;;
17169;SDS011;8700;48.222;16.342;2024-03-29T00:48:17;2.60;;;2.50;;
17169;SDS011;8700;48.222;16.342;2024-03-29T00:51:37;2.17;;;2.08;;
17169;SDS011;8700;48.222;16.342;2024-03-29T00:54:57;2.33;;;2.22;;
17169;SDS011;8700;48.222;16.342;2024-03-29T00:58:17;2.83;;;2.73;;
17169;SDS011;8700;48.222;16.342;2024-03-29T01:01:39;2.60;;;2.42;;
17169;SDS011;8700;48.222;16.342;2024-03-29T01:04:59;2.10;;;2.00;;
17169;SDS011;8700;48.222;16.342;2024-03-29T01:08:19;2.30;;;2.20;;
17169;SDS011;8700;48.222;16.342;2024-03-29T01:11:40;2.73;;;2.53;;
17169;SDS011;8700;48.222;16.342;2024-03-29T01:15:00;2.23;;;2.00;;
17169;SDS011;8700;48.222;16.342;2024-03-29T01:18:22;2.63;;;2.43;;
17169;SDS011;8700;48.222;16.342;2024-03-29T01:21:42;2.80;;;2.60;;
17169;SDS011;8700;48.222;16.342;2024-03-29T01:25:02;2.37;;;2.27;;
17169;SDS011;8700;48.222;16.342;2024-03-29T01:28:23;3.43;;;2.43;;
17169;SDS011;8700;48.222;16.342;2024-03-29T01:31:43;2.83;;;2.60;;
17169;SDS011;8700;48.222;16.342;2024-03-29T01:35:05;3.13;;;2.93;;
17169;SDS011;8700;48.222;16.342;2024-03-29T01:38:26;2.97;;;2.77;;
17169;SDS011;8700;48.222;16.342;2024-03-29T01:41:46;2.60;;;2.50;;
17169;SDS011;8700;48.222;16.342;2024-03-29T01:45:07;2.30;;;2.20;;
17169;SDS011;8700;48.222;16.342;2024-03-29T01:48:28;2.27;;;2.17;;
17169;SDS011;8700;48.222;16.342;2024-03-29T01:51:51;3.27;;;3.07;;
17169;SDS011;8700;48.222;16.342;2024-03-29T01:55:12;3.30;;;3.07;;
17169;SDS011;8700;48.222;16.342;2024-03-29T01:58:33;3.20;;;3.00;;
17169;SDS011;8700;48.222;16.342;2024-03-29T02:01:55;3.37;;;3.17;;
17169;SDS011;8700;48.222;16.342;2024-03-29T02:05:17;4.37;;;4.03;;
17169;SDS011;8700;48.222;16.342;2024-03-29T02:08:40;3.30;;;3.10;;
17169;SDS011;8700;48.222;16.342;2024-03-29T02:12:01;3.43;;;3.23;;
17169;SDS011;8700;48.222;16.342;2024-03-29T02:15:22;3.93;;;3.53;;
17169;SDS011;8700;48.222;16.342;2024-03-29T02:18:44;3.10;;;2.90;;
17169;SDS011;8700;48.222;16.342;2024-03-29T02:22:05;3.07;;;2.97;;
17169;SDS011;8700;48.222;16.342;2024-03-29T02:25:29;3.13;;;2.97;;
17169;SDS011;8700;48.222;16.342;2024-03-29T02:28:51;2.93;;;2.73;;
17169;SDS011;8700;48.222;16.342;2024-03-29T02:32:12;3.17;;;2.97;;
17169;SDS011;8700;48.222;16.342;2024-03-29T02:35:33;3.20;;;3.00;;
17169;SDS011;8700;48.222;16.342;2024-03-29T02:38:54;3.20;;;3.00;;
17169;SDS011;8700;48.222;16.342;2024-03-29T02:42:16;3.60;;;3.30;;
17169;SDS011;8700;48.222;16.342;2024-03-29T02:45:38;5.13;;;3.70;;
17169;SDS011;8700;48.222;16.342;2024-03-29T02:48:59;2.90;;;2.70;;
17169;SDS011;8700;48.222;16.342;2024-03-29T02:52:20;2.90;;;2.70;;
17169;SDS011;8700;48.222;16.342;2024-03-29T02:55:40;3.23;;;3.03;;
17169;SDS011;8700;48.222;16.342;2024-03-29T02:59:06;3.43;;;3.13;;
17169;SDS011;8700;48.222;16.342;2024-03-29T03:02:27;3.23;;;3.03;;
17169;SDS011;8700;48.222;16.342;2024-03-29T03:05:48;5.40;;;3.60;;
17169;SDS011;8700;48.222;16.342;2024-03-29T03:09:09;3.00;;;2.80;;
17169;SDS011;8700;48.222;16.342;2024-03-29T03:12:47;3.17;;;2.97;;
17169;SDS011;8700;48.222;16.342;2024-03-29T03:16:10;4.90;;;2.87;;
17169;SDS011;8700;48.222;16.342;2024-03-29T03:19:31;3.33;;;3.03;;
17169;SDS011;8700;48.222;16.342;2024-03-29T03:22:52;2.97;;;2.77;;
17169;SDS011;8700;48.222;16.342;2024-03-29T03:26:15;2.70;;;2.60;;
17169;SDS011;8700;48.222;16.342;2024-03-29T03:29:36;3.47;;;3.17;;
17169;SDS011;8700;48.222;16.342;2024-03-29T03:32:59;2.83;;;2.63;;
17169;SDS011;8700;48.222;16.342;2024-03-29T03:36:19;3.30;;;3.10;;
17169;SDS011;8700;48.222;16.342;2024-03-29T03:39:40;3.50;;;3.30;;
17169;SDS011;8700;48.222;16.342;2024-03-29T03:43:01;2.70;;;2.60;;
17169;SDS011;8700;48.222;16.342;2024-03-29T03:46:23;3.20;;;3.00;;
17169;SDS011;8700;48.222;16.342;2024-03-29T03:49:44;3.37;;;3.17;;
17169;SDS011;8700;48.222;16.342;2024-03-29T03:53:06;2.90;;;2.70;;
17169;SDS011;8700;48.222;16.342;2024-03-29T03:56:27;3.50;;;3.20;;
17169;SDS011;8700;48.222;16.342;2024-03-29T03:59:48;3.50;;;3.30;;
17169;SDS011;8700;48.222;16.342;2024-03-29T04:03:09;2.90;;;2.70;;
17169;SDS011;8700;48.222;16.342;2024-03-29T04:06:31;3.70;;;3.50;;
17169;SDS011;8700;48.222;16.342;2024-03-29T04:09:52;3.93;;;3.67;;
17169;SDS011;8700;48.222;16.342;2024-03-29T04:13:13;3.27;;;3.07;;
17169;SDS011;8700;48.222;16.342;2024-03-29T04:16:34;3.37;;;3.17;;
17169;SDS011;8700;48.222;16.342;2024-03-29T04:19:55;3.70;;;3.40;;
17169;SDS011;8700;48.222;16.342;2024-03-29T04:23:18;14.97;;;11.73;;
17169;SDS011;8700;48.222;16.342;2024-03-29T04:26:39;4.87;;;4.10;;
17169;SDS011;8700;48.222;16.342;2024-03-29T04:30:00;4.03;;;3.70;;
17169;SDS011;8700;48.222;16.342;2024-03-29T04:33:22;4.13;;;3.70;;
17169;SDS011;8700;48.222;16.342;2024-03-29T04:36:42;4.83;;;4.00;;
17169;SDS011;8700;48.222;16.342;2024-03-29T04:40:05;3.90;;;3.60;;
17169;SDS011;8700;48.222;16.342;2024-03-29T04:43:28;3.63;;;3.40;;
17169;SDS011;8700;48.222;16.342;2024-03-29T04:46:49;3.43;;;3.23;;
17169;SDS011;8700;48.222;16.342;2024-03-29T04:50:11;4.60;;;4.23;;
17169;SDS011;8700;48.222;16.342;2024-03-29T04:53:32;6.57;;;3.90;;
17169;SDS011;8700;48.222;16.342;2024-03-29T04:56:54;3.90;;;3.70;;
17169;SDS011;8700;48.222;16.342;2024-03-29T05:00:16;5.90;;;5.40;;
17169;SDS011;8700;48.222;16.342;2024-03-29T05:03:37;4.37;;;4.07;;
17169;SDS011;8700;48.222;16.342;2024-03-29T05:06:58;3.87;;;3.63;;
17169;SDS011;8700;48.222;16.342;2024-03-29T05:10:19;4.50;;;4.23;;
17169;SDS011;8700;48.222;16.342;2024-03-29T05:13:43;3.80;;;3.60;;
17169;SDS011;8700;48.222;16.342;2024-03-29T05:17:04;4.20;;;3.80;;
17169;SDS011;8700;48.222;16.342;2024-03-29T05:20:25;5.83;;;5.43;;
17169;SDS011;8700;48.222;16.342;2024-03-29T05:23:46;3.50;;;3.30;;
17169;SDS011;8700;48.222;16.342;2024-03-29T05:27:07;5.40;;;5.10;;
17169;SDS011;8700;48.222;16.342;2024-03-29T05:30:30;4.70;;;3.97;;
17169;SDS011;8700;48.222;16.342;2024-03-29T05:33:51;4.37;;;4.07;;
17169;SDS011;8700;48.222;16.342;2024-03-29T05:37:12;5.30;;;4.90;;
17169;SDS011;8700;48.222;16.342;2024-03-29T05:40:35;4.73;;;4.30;;
17169;SDS011;8700;48.222;16.342;2024-03-29T05:43:57;5.77;;;5.40;;
17169;SDS011;8700;48.222;16.342;2024-03-29T05:47:20;4.40;;;4.20;;
17169;SDS011;8700;48.222;16.342;2024-03-29T05:50:41;5.30;;;4.90;;
17169;SDS011;8700;48.222;16.342;2024-03-29T05:54:02;8.37;;;5.90;;
17169;SDS011;8700;48.222;16.342;2024-03-29T05:57:23;4.67;;;4.37;;
17169;SDS011;8700;48.222;16.342;2024-03-29T06:00:50;5.27;;;4.83;;
17169;SDS011;8700;48.222;16.342;2024-03-29T06:04:12;4.27;;;3.97;;
17169;SDS011;8700;48.222;16.342;2024-03-29T06:07:35;4.03;;;3.63;;
17169;SDS011;8700;48.222;16.342;2024-03-29T06:10:57;5.03;;;4.63;;
17169;SDS011;8700;48.222;16.342;2024-03-29T06:14:18;4.73;;;4.43;;
17169;SDS011;8700;48.222;16.342;2024-03-29T06:17:57;4.07;;;3.67;;
17169;SDS011;8700;48.222;16.342;2024-03-29T06:21:19;4.70;;;4.30;;
17169;SDS011;8700;48.222;16.342;2024-03-29T06:24:40;4.70;;;4.30;;
17169;SDS011;8700;48.222;16.342;2024-03-29T06:28:03;5.70;;;5.22;;
17169;SDS011;8700;48.222;16.342;2024-03-29T06:31:24;5.07;;;4.77;;
17169;SDS011;8700;48.222;16.342;2024-03-29T06:34:45;4.80;;;3.50;;
17169;SDS011;8700;48.222;16.342;2024-03-29T06:38:08;2.83;;;2.63;;
17169;SDS011;8700;48.222;16.342;2024-03-29T06:41:29;3.15;;;2.85;;
17169;SDS011;8700;48.222;16.342;2024-03-29T06:44:51;4.10;;;3.17;;
17169;SDS011;8700;48.222;16.342;2024-03-29T06:48:13;2.92;;;2.72;;
17169;SDS011;8700;48.222;16.342;2024-03-29T06:51:35;3.13;;;2.93;;
17169;SDS011;8700;48.222;16.342;2024-03-29T06:54:57;3.40;;;3.30;;
17169;SDS011;8700;48.222;16.342;2024-03-29T06:58:18;7.93;;;3.08;;
17169;SDS011;8700;48.222;16.342;2024-03-29T07:01:39;5.83;;;2.80;;
17169;SDS011;8700;48.222;16.342;2024-03-29T07:05:00;3.95;;;3.08;;
17169;SDS011;8700;48.222;16.342;2024-03-29T07:08:27;2.92;;;2.72;;
17169;SDS011;8700;48.222;16.342;2024-03-29T07:11:50;2.88;;;2.60;;
17169;SDS011;8700;48.222;16.342;2024-03-29T07:15:14;3.55;;;3.35;;
17169;SDS011;8700;48.222;16.342;2024-03-29T07:18:37;3.83;;;3.50;;
17169;SDS011;8700;48.222;16.342;2024-03-29T07:21:59;3.13;;;2.92;;
17169;SDS011;8700;48.222;16.342;2024-03-29T07:25:20;3.50;;;2.63;;
17169;SDS011;8700;48.222;16.342;2024-03-29T07:28:43;3.45;;;2.88;;
17169;SDS011;8700;48.222;16.342;2024-03-29T07:32:04;3.33;;;3.05;;
17169;SDS011;8700;48.222;16.342;2024-03-29T07:35:26;3.33;;;3.05;;
17169;SDS011;8700;48.222;16.342;2024-03-29T07:38:46;3.45;;;3.05;;
17169;SDS011;8700;48.222;16.342;2024-03-29T07:42:08;3.33;;;3.13;;
17169;SDS011;8700;48.222;16.342;2024-03-29T07:45:30;3.55;;;3.35;;
17169;SDS011;8700;48.222;16.342;2024-03-29T07:48:51;3.03;;;2.83;;
17169;SDS011;8700;48.222;16.342;2024-03-29T07:52:12;3.40;;;3.10;;
17169;SDS011;8700;48.222;16.342;2024-03-29T07:55:34;2.85;;;2.65;;
17169;SDS011;8700;48.222;16.342;2024-03-29T07:58:55;3.30;;;3.00;;
17169;SDS011;8700;48.222;16.342;2024-03-29T08:02:18;2.20;;;2.10;;
17169;SDS011;8700;48.222;16.342;2024-03-29T08:05:39;3.97;;;2.30;;
17169;SDS011;8700;48.222;16.342;2024-03-29T08:09:00;3.45;;;3.15;;
17169;SDS011;8700;48.222;16.342;2024-03-29T08:12:21;3.28;;;2.97;;
17169;SDS011;8700;48.222;16.342;2024-03-29T08:15:42;2.10;;;2.00;;
17169;SDS011;8700;48.222;16.342;2024-03-29T08:19:05;2.97;;;2.67;;
17169;SDS011;8700;48.222;16.342;2024-03-29T08:22:26;3.38;;;3.08;;
17169;SDS011;8700;48.222;16.342;2024-03-29T08:25:47;3.30;;;2.92;;
17169;SDS011;8700;48.222;16.342;2024-03-29T08:29:10;2.70;;;2.53;;
17169;SDS011;8700;48.222;16.342;2024-03-29T08:32:32;2.72;;;2.53;;
17169;SDS011;8700;48.222;16.342;2024-03-29T08:35:54;3.78;;;2.97;;
17169;SDS011;8700;48.222;16.342;2024-03-29T08:39:15;2.83;;;2.47;;
17169;SDS011;8700;48.222;16.342;2024-03-29T08:42:36;4.47;;;2.72;;
17169;SDS011;8700;48.222;16.342;2024-03-29T08:45:59;3.78;;;3.40;;
17169;SDS011;8700;48.222;16.342;2024-03-29T08:49:20;3.88;;;3.25;;
17169;SDS011;8700;48.222;16.342;2024-03-29T08:52:43;3.72;;;3.42;;
17169;SDS011;8700;48.222;16.342;2024-03-29T08:56:05;3.47;;;3.08;;
17169;SDS011;8700;48.222;16.342;2024-03-29T08:59:27;3.30;;;3.08;;
17169;SDS011;8700;48.222;16.342;2024-03-29T09:02:50;2.90;;;2.70;;
17169;SDS011;8700;48.222;16.342;2024-03-29T09:06:11;2.60;;;2.40;;
17169;SDS011;8700;48.222;16.342;2024-03-29T09:09:34;4.97;;;2.40;;
17169;SDS011;8700;48.222;16.342;2024-03-29T09:12:58;3.33;;;2.03;;
17169;SDS011;8700;48.222;16.342;2024-03-29T09:16:19;3.25;;;1.60;;
17169;SDS011;8700;48.222;16.342;2024-03-29T09:19:40;3.28;;;1.83;;
17169;SDS011;8700;48.222;16.342;2024-03-29T09:23:02;3.45;;;1.90;;
17169;SDS011;8700;48.222;16.342;2024-03-29T09:26:25;4.97;;;1.70;;
17169;SDS011;8700;48.222;16.342;2024-03-29T09:29:47;3.60;;;1.67;;
17169;SDS011;8700;48.222;16.342;2024-03-29T09:33:08;1.88;;;1.65;;
17169;SDS011;8700;48.222;16.342;2024-03-29T09:36:30;2.28;;;1.80;;
17169;SDS011;8700;48.222;16.342;2024-03-29T09:39:51;2.70;;;1.50;;
17169;SDS011;8700;48.222;16.342;2024-03-29T09:43:14;2.10;;;1.40;;
17169;SDS011;8700;48.222;16.342;2024-03-29T09:46:37;3.83;;;1.60;;
17169;SDS011;8700;48.222;16.342;2024-03-29T09:49:59;4.57;;;2.08;;
17169;SDS011;8700;48.222;16.342;2024-03-29T09:53:23;4.40;;;1.70;;
17169;SDS011;8700;48.222;16.342;2024-03-29T09:56:45;2.42;;;1.63;;
17169;SDS011;8700;48.222;16.342;2024-03-29T10:00:09;2.38;;;1.80;;
17169;SDS011;8700;48.222;16.342;2024-03-29T10:03:31;2.15;;;1.20;;
17169;SDS011;8700;48.222;16.342;2024-03-29T10:06:59;2.15;;;1.65;;
17169;SDS011;8700;48.222;16.342;2024-03-29T10:10:21;1.23;;;1.13;;
17169;SDS011;8700;48.222;16.342;2024-03-29T10:13:42;3.03;;;1.70;;
17169;SDS011;8700;48.222;16.342;2024-03-29T10:17:05;3.30;;;1.50;;
17169;SDS011;8700;48.222;16.342;2024-03-29T10:20:26;1.67;;;1.58;;
17169;SDS011;8700;48.222;16.342;2024-03-29T10:23:48;1.30;;;1.20;;
17169;SDS011;8700;48.222;16.342;2024-03-29T10:27:10;1.40;;;1.27;;
17169;SDS011;8700;48.222;16.342;2024-03-29T10:30:32;2.58;;;1.40;;
17169;SDS011;8700;48.222;16.342;2024-03-29T10:33:55;3.67;;;1.40;;
17169;SDS011;8700;48.222;16.342;2024-03-29T10:37:23;3.40;;;1.73;;
17169;SDS011;8700;48.222;16.342;2024-03-29T10:40:48;4.53;;;1.85;;
17169;SDS011;8700;48.222;16.342;2024-03-29T10:44:12;2.55;;;1.25;;
17169;SDS011;8700;48.222;16.342;2024-03-29T10:47:34;6.07;;;2.28;;
17169;SDS011;8700;48.222;16.342;2024-03-29T10:50:56;3.60;;;1.65;;
17169;SDS011;8700;48.222;16.342;2024-03-29T10:54:19;2.45;;;2.20;;
17169;SDS011;8700;48.222;16.342;2024-03-29T10:57:41;2.47;;;1.30;;
17169;SDS011;8700;48.222;16.342;2024-03-29T11:01:04;2.58;;;1.30;;
17169;SDS011;8700;48.222;16.342;2024-03-29T11:04:28;2.05;;;1.30;;
17169;SDS011;8700;48.222;16.342;2024-03-29T11:07:54;2.75;;;1.42;;
17169;SDS011;8700;48.222;16.342;2024-03-29T11:11:17;3.30;;;2.35;;
17169;SDS011;8700;48.222;16.342;2024-03-29T11:14:45;3.00;;;1.55;;
17169;SDS011;8700;48.222;16.342;2024-03-29T11:18:11;3.22;;;1.58;;
17169;SDS011;8700;48.222;16.342;2024-03-29T11:21:33;2.88;;;1.65;;
17169;SDS011;8700;48.222;16.342;2024-03-29T11:24:55;3.85;;;1.80;;
17169;SDS011;8700;48.222;16.342;2024-03-29T11:28:22;3.30;;;1.45;;
17169;SDS011;8700;48.222;16.342;2024-03-29T11:31:45;6.43;;;2.00;;
17169;SDS011;8700;48.222;16.342;2024-03-29T11:35:13;4.20;;;1.98;;
17169;SDS011;8700;48.222;16.342;2024-03-29T11:38:35;4.22;;;1.95;;
17169;SDS011;8700;48.222;16.342;2024-03-29T11:41:58;3.78;;;1.50;;
17169;SDS011;8700;48.222;16.342;2024-03-29T11:45:22;3.78;;;1.83;;
17169;SDS011;8700;48.222;16.342;2024-03-29T11:48:47;5.70;;;1.80;;
17169;SDS011;8700;48.222;16.342;2024-03-29T11:52:09;3.55;;;2.00;;
17169;SDS011;8700;48.222;16.342;2024-03-29T11:55:30;4.10;;;2.00;;
17169;SDS011;8700;48.222;16.342;2024-03-29T11:58:55;3.08;;;1.98;;
17169;SDS011;8700;48.222;16.342;2024-03-29T12:02:18;3.95;;;1.90;;
17169;SDS011;8700;48.222;16.342;2024-03-29T12:05:40;2.88;;;1.58;;
17169;SDS011;8700;48.222;16.342;2024-03-29T12:09:01;4.93;;;1.75;;
17169;SDS011;8700;48.222;16.342;2024-03-29T12:12:22;4.63;;;2.90;;
17169;SDS011;8700;48.222;16.342;2024-03-29T12:15:45;3.95;;;2.30;;
17169;SDS011;8700;48.222;16.342;2024-03-29T12:19:06;4.35;;;2.28;;
17169;SDS011;8700;48.222;16.342;2024-03-29T12:22:27;2.17;;;1.80;;
17169;SDS011;8700;48.222;16.342;2024-03-29T12:25:49;2.03;;;1.73;;
17169;SDS011;8700;48.222;16.342;2024-03-29T12:29:11;2.25;;;2.00;;
17169;SDS011;8700;48.222;16.342;2024-03-29T12:32:35;5.20;;;2.40;;
17169;SDS011;8700;48.222;16.342;2024-03-29T12:35:56;2.47;;;2.00;;
17169;SDS011;8700;48.222;16.342;2024-03-29T12:39:18;3.08;;;2.15;;
17169;SDS011;8700;48.222;16.342;2024-03-29T12:42:40;4.03;;;2.35;;
17169;SDS011;8700;48.222;16.342;2024-03-29T12:46:01;3.75;;;2.05;;
17169;SDS011;8700;48.222;16.342;2024-03-29T12:49:25;2.65;;;1.98;;
17169;SDS011;8700;48.222;16.342;2024-03-29T12:52:46;2.55;;;1.95;;
17169;SDS011;8700;48.222;16.342;2024-03-29T12:56:08;2.58;;;1.73;;
17169;SDS011;8700;48.222;16.342;2024-03-29T12:59:30;3.70;;;2.17;;
17169;SDS011;8700;48.222;16.342;2024-03-29T13:02:54;1.65;;;1.50;;
17169;SDS011;8700;48.222;16.342;2024-03-29T13:06:17;2.53;;;1.75;;
17169;SDS011;8700;48.222;16.342;2024-03-29T13:09:38;3.35;;;1.42;;
17169;SDS011;8700;48.222;16.342;2024-03-29T13:12:59;2.45;;;1.90;;
17169;SDS011;8700;48.222;16.342;2024-03-29T13:16:21;2.58;;;1.95;;
17169;SDS011;8700;48.222;16.342;2024-03-29T13:19:43;2.40;;;1.63;;
17169;SDS011;8700;48.222;16.342;2024-03-29T13:23:05;5.50;;;1.77;;
17169;SDS011;8700;48.222;16.342;2024-03-29T13:26:26;2.17;;;1.55;;
17169;SDS011;8700;48.222;16.342;2024-03-29T13:29:49;2.35;;;1.67;;
17169;SDS011;8700;48.222;16.342;2024-03-29T13:33:12;3.30;;;1.60;;
17169;SDS011;8700;48.222;16.342;2024-03-29T13:36:33;2.50;;;1.52;;
17169;SDS011;8700;48.222;16.342;2024-03-29T13:39:56;2.00;;;1.73;;
17169;SDS011;8700;48.222;16.342;2024-03-29T13:43:18;9.07;;;2.70;;
17169;SDS011;8700;48.222;16.342;2024-03-29T13:46:41;3.03;;;2.08;;
17169;SDS011;8700;48.222;16.342;2024-03-29T13:50:03;1.63;;;1.50;;
17169;SDS011;8700;48.222;16.342;2024-03-29T13:53:25;1.98;;;1.70;;
17169;SDS011;8700;48.222;16.342;2024-03-29T13:56:47;2.20;;;2.10;;
17169;SDS011;8700;48.222;16.342;2024-03-29T14:00:09;4.88;;;1.90;;
17169;SDS011;8700;48.222;16.342;2024-03-29T14:03:33;2.90;;;1.42;;
17169;SDS011;8700;48.222;16.342;2024-03-29T14:06:54;3.55;;;1.90;;
17169;SDS011;8700;48.222;16.342;2024-03-29T14:10:16;2.45;;;1.58;;
17169;SDS011;8700;48.222;16.342;2024-03-29T14:13:40;4.40;;;2.10;;
17169;SDS011;8700;48.222;16.342;2024-03-29T14:17:01;1.65;;;1.40;;
17169;SDS011;8700;48.222;16.342;2024-03-29T14:20:23;1.85;;;1.63;;
17169;SDS011;8700;48.222;16.342;2024-03-29T14:23:44;3.63;;;1.45;;
17169;SDS011;8700;48.222;16.342;2024-03-29T14:27:06;1.50;;;1.00;;
17169;SDS011;8700;48.222;16.342;2024-03-29T14:30:29;2.67;;;1.63;;
17169;SDS011;8700;48.222;16.342;2024-03-29T14:33:50;1.40;;;1.15;;
17169;SDS011;8700;48.222;16.342;2024-03-29T14:37:11;2.28;;;1.35;;
17169;SDS011;8700;48.222;16.342;2024-03-29T14:40:35;1.52;;;1.30;;
17169;SDS011;8700;48.222;16.342;2024-03-29T14:43:57;1.70;;;1.48;;
17169;SDS011;8700;48.222;16.342;2024-03-29T14:47:20;1.20;;;1.10;;
17169;SDS011;8700;48.222;16.342;2024-03-29T14:50:41;2.85;;;1.67;;
17169;SDS011;8700;48.222;16.342;2024-03-29T14:54:03;2.63;;;1.73;;
17169;SDS011;8700;48.222;16.342;2024-03-29T14:57:24;1.45;;;1.35;;
17169;SDS011;8700;48.222;16.342;2024-03-29T15:00:45;2.13;;;1.20;;
17169;SDS011;8700;48.222;16.342;2024-03-29T15:04:09;2.22;;;0.90;;
17169;SDS011;8700;48.222;16.342;2024-03-29T15:07:29;0.75;;;0.75;;
17169;SDS011;8700;48.222;16.342;2024-03-29T15:10:55;1.80;;;1.30;;
17169;SDS011;8700;48.222;16.342;2024-03-29T15:14:16;1.65;;;0.82;;
17169;SDS011;8700;48.222;16.342;2024-03-29T15:17:38;1.85;;;1.23;;
17169;SDS011;8700;48.222;16.342;2024-03-29T15:21:00;1.65;;;1.33;;
17169;SDS011;8700;48.222;16.342;2024-03-29T15:24:23;1.48;;;1.27;;
17169;SDS011;8700;48.222;16.342;2024-03-29T15:27:45;1.30;;;1.20;;
17169;SDS011;8700;48.222;16.342;2024-03-29T15:31:24;2.45;;;1.27;;
17169;SDS011;8700;48.222;16.342;2024-03-29T15:34:46;1.58;;;1.40;;
17169;SDS011;8700;48.222;16.342;2024-03-29T15:38:09;2.03;;;1.08;;
17169;SDS011;8700;48.222;16.342;2024-03-29T15:41:32;1.30;;;1.17;;
17169;SDS011;8700;48.222;16.342;2024-03-29T15:44:54;2.28;;;1.40;;
17169;SDS011;8700;48.222;16.342;2024-03-29T15:48:15;2.08;;;1.70;;
17169;SDS011;8700;48.222;16.342;2024-03-29T15:51:36;2.17;;;1.50;;
17169;SDS011;8700;48.222;16.342;2024-03-29T15:54:59;1.67;;;1.00;;
17169;SDS011;8700;48.222;16.342;2024-03-29T15:58:20;1.13;;;0.93;;
17169;SDS011;8700;48.222;16.342;2024-03-29T16:01:41;0.98;;;0.98;;
17169;SDS011;8700;48.222;16.342;2024-03-29T16:05:03;2.38;;;1.15;;
17169;SDS011;8700;48.222;16.342;2024-03-29T16:08:24;2.33;;;1.23;;
17169;SDS011;8700;48.222;16.342;2024-03-29T16:11:47;1.80;;;1.27;;
17169;SDS011;8700;48.222;16.342;2024-03-29T16:15:08;1.30;;;1.17;;
17169;SDS011;8700;48.222;16.342;2024-03-29T16:18:30;1.40;;;1.30;;
17169;SDS011;8700;48.222;16.342;2024-03-29T16:21:52;2.38;;;1.50;;
17169;SDS011;8700;48.222;16.342;2024-03-29T16:25:12;2.50;;;1.75;;
17169;SDS011;8700;48.222;16.342;2024-03-29T16:28:35;1.60;;;1.30;;
17169;SDS011;8700;48.222;16.342;2024-03-29T16:31:56;1.13;;;1.05;;
17169;SDS011;8700;48.222;16.342;2024-03-29T16:35:16;1.45;;;1.35;;
17169;SDS011;8700;48.222;16.342;2024-03-29T16:38:37;3.17;;;1.90;;
17169;SDS011;8700;48.222;16.342;2024-03-29T16:41:59;2.10;;;1.73;;
17169;SDS011;8700;48.222;16.342;2024-03-29T16:45:21;1.65;;;1.55;;
17169;SDS011;8700;48.222;16.342;2024-03-29T16:48:42;2.67;;;1.60;;
17169;SDS011;8700;48.222;16.342;2024-03-29T16:52:02;1.75;;;1.50;;
17169;SDS011;8700;48.222;16.342;2024-03-29T16:55:24;2.47;;;2.28;;
17169;SDS011;8700;48.222;16.342;2024-03-29T16:58:47;2.30;;;2.00;;
17169;SDS011;8700;48.222;16.342;2024-03-29T17:02:10;1.88;;;1.77;;
17169;SDS011;8700;48.222;16.342;2024-03-29T17:05:30;2.47;;;1.75;;
17169;SDS011;8700;48.222;16.342;2024-03-29T17:08:52;2.22;;;1.88;;
17169;SDS011;8700;48.222;16.342;2024-03-29T17:12:13;2.35;;;2.00;;
17169;SDS011;8700;48.222;16.342;2024-03-29T17:15:34;2.45;;;1.85;;
17169;SDS011;8700;48.222;16.342;2024-03-29T17:18:56;2.22;;;1.90;;
17169;SDS011;8700;48.222;16.342;2024-03-29T17:22:17;2.55;;;2.35;;
17169;SDS011;8700;48.222;16.342;2024-03-29T17:25:38;3.22;;;2.20;;
17169;SDS011;8700;48.222;16.342;2024-03-29T17:28:59;2.85;;;1.92;;
17169;SDS011;8700;48.222;16.342;2024-03-29T17:32:20;2.88;;;2.20;;
17169;SDS011;8700;48.222;16.342;2024-03-29T17:35:43;4.45;;;2.35;;
17169;SDS011;8700;48.222;16.342;2024-03-29T17:39:04;4.07;;;2.58;;
17169;SDS011;8700;48.222;16.342;2024-03-29T17:42:25;2.88;;;2.50;;
17169;SDS011;8700;48.222;16.342;2024-03-29T17:45:46;3.40;;;2.88;;
17169;SDS011;8700;48.222;16.342;2024-03-29T17:49:06;3.40;;;3.20;;
17169;SDS011;8700;48.222;16.342;2024-03-29T17:52:29;5.70;;;5.05;;
17169;SDS011;8700;48.222;16.342;2024-03-29T17:55:49;4.97;;;4.47;;
17169;SDS011;8700;48.222;16.342;2024-03-29T17:59:10;6.05;;;5.40;;
17169;SDS011;8700;48.222;16.342;2024-03-29T18:02:34;4.32;;;3.63;;
17169;SDS011;8700;48.222;16.342;2024-03-29T18:05:55;3.90;;;3.60;;
17169;SDS011;8700;48.222;16.342;2024-03-29T18:09:17;3.97;;;3.42;;
17169;SDS011;8700;48.222;16.342;2024-03-29T18:12:38;4.82;;;3.17;;
17169;SDS011;8700;48.222;16.342;2024-03-29T18:15:58;4.05;;;2.90;;
17169;SDS011;8700;48.222;16.342;2024-03-29T18:19:19;8.02;;;3.38;;
17169;SDS011;8700;48.222;16.342;2024-03-29T18:22:40;3.53;;;2.80;;
17169;SDS011;8700;48.222;16.342;2024-03-29T18:26:03;3.80;;;3.40;;
17169;SDS011;8700;48.222;16.342;2024-03-29T18:29:24;3.95;;;3.45;;
17169;SDS011;8700;48.222;16.342;2024-03-29T18:32:45;4.00;;;3.50;;
17169;SDS011;8700;48.222;16.342;2024-03-29T18:36:06;5.35;;;3.92;;
17169;SDS011;8700;48.222;16.342;2024-03-29T18:39:27;3.97;;;3.67;;
17169;SDS011;8700;48.222;16.342;2024-03-29T18:42:50;5.28;;;3.53;;
17169;SDS011;8700;48.222;16.342;2024-03-29T18:46:12;4.65;;;3.80;;
17169;SDS011;8700;48.222;16.342;2024-03-29T18:49:32;4.28;;;3.83;;
17169;SDS011;8700;48.222;16.342;2024-03-29T18:52:53;8.23;;;7.43;;
17169;SDS011;8700;48.222;16.342;2024-03-29T18:56:14;5.18;;;4.65;;
17169;SDS011;8700;48.222;16.342;2024-03-29T18:59:37;5.53;;;4.32;;
17169;SDS011;8700;48.222;16.342;2024-03-29T19:02:59;4.72;;;4.38;;
17169;SDS011;8700;48.222;16.342;2024-03-29T19:06:20;6.40;;;5.72;;
17169;SDS011;8700;48.222;16.342;2024-03-29T19:09:44;6.65;;;5.95;;
17169;SDS011;8700;48.222;16.342;2024-03-29T19:13:05;8.13;;;6.72;;
17169;SDS011;8700;48.222;16.342;2024-03-29T19:16:28;9.90;;;7.03;;
17169;SDS011;8700;48.222;16.342;2024-03-29T19:19:50;8.93;;;7.57;;
17169;SDS011;8700;48.222;16.342;2024-03-29T19:23:12;7.82;;;6.70;;
17169;SDS011;8700;48.222;16.342;2024-03-29T19:26:33;10.15;;;8.48;;
17169;SDS011;8700;48.222;16.342;2024-03-29T19:29:53;9.55;;;8.75;;
17169;SDS011;8700;48.222;16.342;2024-03-29T19:33:15;9.05;;;8.13;;
17169;SDS011;8700;48.222;16.342;2024-03-29T19:36:36;11.18;;;8.05;;
17169;SDS011;8700;48.222;16.342;2024-03-29T19:39:57;12.57;;;9.02;;
17169;SDS011;8700;48.222;16.342;2024-03-29T19:43:18;9.10;;;8.05;;
17169;SDS011;8700;48.222;16.342;2024-03-29T19:46:39;8.63;;;7.88;;
17169;SDS011;8700;48.222;16.342;2024-03-29T19:50:01;9.52;;;7.00;;
17169;SDS011;8700;48.222;16.342;2024-03-29T19:53:22;7.22;;;6.53;;
17169;SDS011;8700;48.222;16.342;2024-03-29T19:56:42;7.13;;;6.43;;
17169;SDS011;8700;48.222;16.342;2024-03-29T20:00:03;8.68;;;6.78;;
17169;SDS011;8700;48.222;16.342;2024-03-29T20:03:25;7.78;;;6.63;;
17169;SDS011;8700;48.222;16.342;2024-03-29T20:06:48;10.18;;;6.90;;
17169;SDS011;8700;48.222;16.342;2024-03-29T20:10:08;7.43;;;5.90;;
17169;SDS011;8700;48.222;16.342;2024-03-29T20:13:29;6.28;;;5.70;;
17169;SDS011;8700;48.222;16.342;2024-03-29T20:16:51;5.75;;;5.25;;